Time;durP1;ratioP1;P1;durP2;ratioP2;P2;SDS_P1;SDS_P2;PMS_P1;PMS_P2;Temp;Humidity;BMP_temperature;BMP_pressure;BME280_temperature;BME280_humidity;BME280_pressure;Samples;Min_cycle;Max_cycle;Signal;HPM_P1;HPM_P2
2022/01/03 00:01:14;;;;;;;12.77;5.83;;;8.90;99.90;;;;;;4398625;28;657930;-77
2022/01/03 00:04:02;;;;;;;16.70;5.53;;;8.80;99.90;;;;;;4394173;28;657827;-76
2022/01/03 00:06:51;;;;;;;14.03;6.20;;;8.80;99.90;;;;;;4410995;28;658065;-76
2022/01/03 00:09:38;;;;;;;12.20;5.63;;;8.80;99.90;;;;;;4415461;28;657689;-77
2022/01/03 00:12:26;;;;;;;14.47;6.03;;;8.70;99.90;;;;;;4394947;28;658116;-76
2022/01/03 00:15:15;;;;;;;11.50;5.93;;;8.70;99.90;;;;;;4415903;28;658391;-77
2022/01/03 00:18:04;;;;;;;12.20;5.50;;;8.70;99.90;;;;;;4389138;28;658859;-77
2022/01/03 00:20:58;;;;;;;11.57;5.70;;;8.70;99.90;;;;;;4393657;28;657774;-76
2022/01/03 00:23:49;;;;;;;13.43;6.33;;;8.70;99.90;;;;;;4382863;28;658276;-76
2022/01/03 00:26:37;;;;;;;13.63;6.53;;;8.70;99.90;;;;;;4393565;28;658456;-77
2022/01/03 00:29:25;;;;;;;13.13;5.67;;;8.70;99.90;;;;;;4412151;28;657556;-77
2022/01/03 00:32:14;;;;;;;12.63;5.90;;;8.70;99.90;;;;;;4414425;28;658458;-77
2022/01/03 00:35:02;;;;;;;13.30;6.17;;;8.70;99.90;;;;;;4393116;28;658127;-77
2022/01/03 00:37:51;;;;;;;10.63;5.40;;;8.70;99.90;;;;;;4418262;28;656959;-77
2022/01/03 00:40:38;;;;;;;14.23;6.37;;;8.60;99.90;;;;;;4391772;28;658280;-76
2022/01/03 00:43:26;;;;;;;11.40;5.63;;;8.60;99.90;;;;;;4402133;28;658037;-77
2022/01/03 00:46:13;;;;;;;19.73;6.40;;;8.60;99.90;;;;;;4416064;28;658695;-76
2022/01/03 00:49:01;;;;;;;11.47;5.73;;;8.60;99.90;;;;;;4393422;28;657555;-77
2022/01/03 00:51:49;;;;;;;17.57;7.23;;;8.50;99.90;;;;;;4414003;28;657467;-76
2022/01/03 00:54:38;;;;;;;17.63;7.63;;;8.50;99.90;;;;;;4394882;28;657547;-76
2022/01/03 00:57:29;;;;;;;11.50;5.93;;;8.50;99.90;;;;;;4398419;28;657264;-77
2022/01/03 01:00:17;;;;;;;12.50;6.10;;;8.50;99.90;;;;;;4396736;28;658744;-77
2022/01/03 01:03:10;;;;;;;14.43;6.17;;;8.50;99.90;;;;;;4416383;28;658170;-76
2022/01/03 01:05:57;;;;;;;11.77;6.33;;;8.50;99.90;;;;;;4391503;28;658250;-77
2022/01/03 01:08:46;;;;;;;17.90;7.40;;;8.50;99.90;;;;;;4418818;28;657310;-77
2022/01/03 01:11:35;;;;;;;16.40;6.17;;;8.50;99.90;;;;;;4390892;28;658161;-77
2022/01/03 01:14:23;;;;;;;12.60;6.70;;;8.50;99.90;;;;;;4392570;28;658816;-77
2022/01/03 01:17:10;;;;;;;10.63;4.87;;;8.50;99.90;;;;;;4406799;28;657695;-76
2022/01/03 01:19:58;;;;;;;12.40;6.03;;;8.50;99.90;;;;;;4412623;28;658632;-76
2022/01/03 01:22:46;;;;;;;11.00;5.07;;;8.50;99.90;;;;;;4392473;28;658350;-77
2022/01/03 01:28:39;;;;;;;11.20;5.30;;;8.50;99.90;;;;;;4371740;28;658075;-76
2022/01/03 01:31:27;;;;;;;10.30;5.37;;;8.40;99.90;;;;;;4394281;28;658100;-77
2022/01/03 01:34:18;;;;;;;10.97;5.33;;;8.50;99.90;;;;;;4420726;28;657953;-77
2022/01/03 01:37:06;;;;;;;13.77;5.20;;;8.40;99.90;;;;;;4395251;28;657957;-77
2022/01/03 01:39:54;;;;;;;11.47;5.03;;;8.50;99.90;;;;;;4420107;28;658640;-77
2022/01/03 01:42:43;;;;;;;6.23;4.13;;;8.50;99.90;;;;;;4397549;28;657261;-77
2022/01/03 01:45:32;;;;;;;14.20;5.13;;;8.50;99.90;;;;;;4397163;28;656521;-77
2022/01/03 01:48:21;;;;;;;8.23;5.17;;;8.50;99.90;;;;;;4420025;28;657157;-77
2022/01/03 01:51:10;;;;;;;8.90;4.17;;;8.50;99.90;;;;;;4395973;28;656483;-76
2022/01/03 01:53:57;;;;;;;7.50;4.30;;;8.50;99.90;;;;;;4393496;28;656944;-76
2022/01/03 01:57:04;;;;;;;7.63;4.20;;;8.50;99.90;;;;;;4416560;28;657004;-76
2022/01/03 02:00:03;;;;;;;9.03;4.97;;;8.50;99.90;;;;;;4372028;28;657033;-76
2022/01/03 02:03:01;;;;;;;9.03;5.00;;;8.40;99.90;;;;;;4388493;28;656823;-76
2022/01/03 02:06:03;;;;;;;8.47;4.40;;;8.40;99.90;;;;;;4391228;28;657402;-76
2022/01/03 02:08:57;;;;;;;11.03;4.57;;;8.40;99.90;;;;;;4386088;28;658007;-77
2022/01/03 02:11:50;;;;;;;13.37;5.33;;;8.40;99.90;;;;;;4416854;28;657668;-77
2022/01/03 02:14:37;;;;;;;10.57;5.20;;;8.40;99.90;;;;;;4393200;28;658189;-77
2022/01/03 02:17:25;;;;;;;7.47;4.40;;;8.40;99.90;;;;;;4419942;28;656740;-76
2022/01/03 02:20:15;;;;;;;8.63;4.10;;;8.40;99.90;;;;;;4401435;28;656950;-76
2022/01/03 02:23:03;;;;;;;12.33;4.87;;;8.40;99.90;;;;;;4398314;28;657176;-77
2022/01/03 02:25:51;;;;;;;12.83;4.77;;;8.40;99.90;;;;;;4397626;28;657457;-77
2022/01/03 02:28:38;;;;;;;10.67;4.27;;;8.40;99.90;;;;;;4418590;28;658285;-76
2022/01/03 02:31:26;;;;;;;8.33;4.60;;;8.40;99.90;;;;;;4399088;28;658015;-76
2022/01/03 02:34:13;;;;;;;12.83;4.83;;;8.30;99.90;;;;;;4421150;28;656279;-77
2022/01/03 02:37:02;;;;;;;11.50;4.33;;;8.30;99.90;;;;;;4395069;28;657764;-76
2022/01/03 02:39:51;;;;;;;9.40;3.60;;;8.30;99.90;;;;;;4410770;28;658001;-76
2022/01/03 02:42:38;;;;;;;6.93;4.07;;;8.30;99.90;;;;;;4420828;28;657462;-77
2022/01/03 02:45:26;;;;;;;10.93;4.20;;;8.30;99.90;;;;;;4400073;28;656815;-77
2022/01/03 02:48:14;;;;;;;8.33;4.10;;;8.30;99.90;;;;;;4418589;28;658363;-77
2022/01/03 02:51:01;;;;;;;9.13;3.77;;;8.30;99.90;;;;;;4400156;28;657836;-77
2022/01/03 02:53:50;;;;;;;8.07;4.13;;;8.20;99.90;;;;;;4413988;28;657513;-77
2022/01/03 02:56:39;;;;;;;7.23;3.90;;;8.10;99.90;;;;;;4395669;28;657115;-77
2022/01/03 02:59:26;;;;;;;10.90;4.60;;;8.10;99.90;;;;;;4398728;28;657175;-78
2022/01/03 03:02:14;;;;;;;8.17;3.57;;;8.00;99.90;;;;;;4419091;28;657941;-76
2022/01/03 03:05:02;;;;;;;7.50;3.70;;;8.00;99.90;;;;;;4397730;28;656897;-77
2022/01/03 03:07:50;;;;;;;12.07;5.07;;;8.10;99.90;;;;;;4421647;28;657429;-77
2022/01/03 03:10:39;;;;;;;7.10;4.03;;;8.00;99.90;;;;;;4397954;28;658688;-77
2022/01/03 03:13:26;;;;;;;6.87;4.70;;;8.00;99.90;;;;;;4401474;28;656651;-77
2022/01/03 03:16:14;;;;;;;6.80;4.13;;;8.00;99.90;;;;;;4419148;28;657331;-76
2022/01/03 03:19:01;;;;;;;8.00;3.93;;;8.00;99.90;;;;;;4396839;28;658044;-77
2022/01/03 03:21:49;;;;;;;11.93;4.40;;;8.00;99.90;;;;;;4415969;28;656922;-77
2022/01/03 03:24:37;;;;;;;7.53;4.17;;;8.10;99.90;;;;;;4393390;28;657988;-77
2022/01/03 03:27:26;;;;;;;5.93;3.43;;;8.10;99.90;;;;;;4417327;28;656948;-77
2022/01/03 03:30:14;;;;;;;9.03;4.17;;;8.10;99.90;;;;;;4398071;28;657884;-76
2022/01/03 03:33:04;;;;;;;8.70;3.70;;;8.10;99.90;;;;;;4388994;28;656792;-77
2022/01/03 03:35:52;;;;;;;6.55;3.97;;;8.20;99.90;;;;;;4396152;28;656507;-75
2022/01/03 03:38:40;;;;;;;6.60;4.00;;;8.20;99.90;;;;;;4426871;28;656748;-75
2022/01/03 03:41:27;;;;;;;7.80;3.50;;;8.20;99.90;;;;;;4401888;28;657647;-76
2022/01/03 03:44:16;;;;;;;5.37;3.20;;;8.20;99.90;;;;;;4418948;28;656134;-78
2022/01/03 03:47:04;;;;;;;8.25;3.90;;;8.30;99.90;;;;;;4397348;28;657244;-77
2022/01/03 03:49:52;;;;;;;9.20;3.60;;;8.30;99.90;;;;;;4399805;28;656631;-77
2022/01/03 03:52:40;;;;;;;6.50;3.30;;;8.20;99.90;;;;;;4427245;28;656724;-77
2022/01/03 03:55:27;;;;;;;7.93;3.10;;;8.30;99.90;;;;;;4394912;28;657471;-77
2022/01/03 03:58:16;;;;;;;9.47;3.13;;;8.40;99.90;;;;;;4425882;28;657322;-73
2022/01/03 04:01:05;;;;;;;6.57;3.13;;;8.40;99.90;;;;;;4431551;28;657835;-75
2022/01/03 04:03:53;;;;;;;5.50;2.37;;;8.40;99.90;;;;;;4400319;28;657404;-75
2022/01/03 04:06:41;;;;;;;8.03;3.10;;;8.40;99.90;;;;;;4410935;28;656446;-77
2022/01/03 04:09:28;;;;;;;9.20;3.43;;;8.50;99.90;;;;;;4430970;28;655855;-77
2022/01/03 04:12:16;;;;;;;9.27;3.30;;;8.50;99.90;;;;;;4408249;28;656087;-76
2022/01/03 04:15:04;;;;;;;7.20;3.57;;;8.50;99.90;;;;;;4431824;28;657332;-78
2022/01/03 04:17:53;;;;;;;7.53;3.47;;;8.50;99.90;;;;;;4404306;28;656656;-77
2022/01/03 04:20:41;;;;;;;8.90;3.47;;;8.60;99.90;;;;;;4410427;28;657373;-77
2022/01/03 04:23:28;;;;;;;10.60;2.87;;;8.60;99.90;;;;;;4431871;28;658229;-76
2022/01/03 04:26:16;;;;;;;8.27;3.50;;;8.60;99.90;;;;;;4402880;28;657950;-76
2022/01/03 04:29:03;;;;;;;8.63;3.40;;;8.60;99.90;;;;;;4428412;28;656526;-77
2022/01/03 04:31:51;;;;;;;9.07;3.50;;;8.60;99.90;;;;;;4404091;28;656470;-77
2022/01/03 04:34:40;;;;;;;6.83;3.50;;;8.60;99.90;;;;;;4422872;28;657722;-77
2022/01/03 04:37:27;;;;;;;5.40;2.70;;;8.50;99.90;;;;;;4405678;28;657331;-76
2022/01/03 04:40:16;;;;;;;4.87;2.73;;;8.60;99.90;;;;;;4424798;28;656834;-77
2022/01/03 04:43:03;;;;;;;5.40;2.77;;;8.60;99.90;;;;;;4432262;28;657665;-78
2022/01/03 04:45:51;;;;;;;5.23;3.00;;;8.60;99.90;;;;;;4393481;28;657344;-77
2022/01/03 04:48:39;;;;;;;6.07;3.00;;;8.70;99.90;;;;;;4419954;28;657211;-76
2022/01/03 04:51:28;;;;;;;8.67;2.67;;;8.70;99.90;;;;;;4406498;28;656863;-77
2022/01/03 04:54:15;;;;;;;4.97;2.47;;;8.70;99.90;;;;;;4409396;28;656434;-77
2022/01/03 04:57:03;;;;;;;5.10;2.50;;;8.70;99.90;;;;;;4414960;28;657449;-76
2022/01/03 04:59:51;;;;;;;5.63;2.60;;;8.80;99.90;;;;;;4408267;28;656828;-76
2022/01/03 05:02:38;;;;;;;5.83;2.73;;;8.80;99.90;;;;;;4414969;28;656186;-75
2022/01/03 05:05:26;;;;;;;6.90;3.00;;;8.80;99.90;;;;;;4405370;28;656831;-77
2022/01/03 05:08:15;;;;;;;6.97;3.10;;;8.80;99.90;;;;;;4426268;28;656836;-76
2022/01/03 05:11:03;;;;;;;10.93;3.00;;;8.70;99.90;;;;;;4404840;28;657487;-76
2022/01/03 05:13:50;;;;;;;6.07;2.97;;;8.70;99.90;;;;;;4412036;28;657802;-76
2022/01/03 05:16:38;;;;;;;6.27;3.00;;;8.70;99.90;;;;;;4430877;28;657392;-76
2022/01/03 05:19:26;;;;;;;6.57;3.20;;;8.70;99.90;;;;;;4411328;28;656532;-76
2022/01/03 05:22:13;;;;;;;4.40;2.10;;;8.70;99.90;;;;;;4431661;28;656864;-76
2022/01/03 05:25:02;;;;;;;6.97;3.00;;;8.70;99.90;;;;;;4402602;28;656718;-76
2022/01/03 05:27:50;;;;;;;6.87;2.50;;;8.70;99.90;;;;;;4420980;28;657010;-76
2022/01/03 05:30:38;;;;;;;4.10;2.20;;;8.70;99.90;;;;;;4393996;28;657488;-75
2022/01/03 05:33:26;;;;;;;6.30;2.40;;;8.70;99.90;;;;;;4421607;28;656755;-77
2022/01/03 05:36:13;;;;;;;5.33;2.80;;;8.60;99.90;;;;;;4422685;28;655940;-76
2022/01/03 05:39:01;;;;;;;5.20;2.37;;;8.50;99.90;;;;;;4400790;28;656905;-76
2022/01/03 05:41:50;;;;;;;6.10;2.80;;;8.50;99.90;;;;;;4423573;28;656166;-75
2022/01/03 05:44:38;;;;;;;7.93;3.27;;;8.50;99.90;;;;;;4387860;28;657031;-77
2022/01/03 05:47:26;;;;;;;6.67;3.00;;;8.40;99.90;;;;;;4402711;28;656392;-77
2022/01/03 05:50:14;;;;;;;7.33;3.03;;;8.20;99.90;;;;;;4428216;28;657450;-77
2022/01/03 05:53:01;;;;;;;9.27;3.80;;;8.20;99.90;;;;;;4404755;28;656863;-77
2022/01/03 05:55:49;;;;;;;7.93;4.07;;;8.00;99.90;;;;;;4409887;28;657833;-77
2022/01/03 05:58:38;;;;;;;6.63;3.30;;;8.00;99.90;;;;;;4401044;28;656886;-78
2022/01/03 06:01:27;;;;;;;9.93;3.20;;;7.90;99.90;;;;;;4406268;28;656361;-78
2022/01/03 06:04:20;;;;;;;7.45;3.50;;;7.90;99.90;;;;;;4416598;28;656052;-77
2022/01/03 06:07:09;;;;;;;9.13;3.10;;;7.90;99.90;;;;;;4395071;28;656564;-77
2022/01/03 06:09:57;;;;;;;11.63;4.00;;;7.80;99.90;;;;;;4395822;28;656379;-78
2022/01/03 06:12:47;;;;;;;8.80;3.90;;;7.80;99.90;;;;;;4417796;28;657906;-78
2022/01/03 06:15:37;;;;;;;9.33;3.67;;;7.80;99.90;;;;;;4407037;28;656641;-78
2022/01/03 06:18:24;;;;;;;6.47;3.37;;;7.80;99.90;;;;;;4386371;28;657823;-77
2022/01/03 06:21:12;;;;;;;5.33;3.30;;;7.70;99.90;;;;;;4403559;28;656544;-77
2022/01/03 06:23:59;;;;;;;9.27;3.47;;;7.70;99.90;;;;;;4420305;28;656859;-77
2022/01/03 06:26:47;;;;;;;8.90;2.37;;;7.70;99.90;;;;;;4394583;28;656636;-78
2022/01/03 06:29:34;;;;;;;5.47;3.17;;;7.70;99.90;;;;;;4416220;28;657610;-77
2022/01/03 06:32:23;;;;;;;6.53;3.27;;;7.70;99.90;;;;;;4396230;28;657780;-77
2022/01/03 06:35:11;;;;;;;9.77;3.57;;;7.70;99.90;;;;;;4396770;28;656808;-78
2022/01/03 06:37:59;;;;;;;11.53;3.73;;;7.80;99.90;;;;;;4428050;28;657583;-77
2022/01/03 06:40:46;;;;;;;5.73;2.80;;;7.80;99.90;;;;;;4390108;28;658051;-77
2022/01/03 06:43:35;;;;;;;9.20;4.27;;;7.70;99.90;;;;;;4420684;28;656582;-76
2022/01/03 06:46:23;;;;;;;9.80;4.50;;;7.70;99.90;;;;;;4398509;28;657438;-76
2022/01/03 06:49:12;;;;;;;10.95;3.95;;;7.70;99.90;;;;;;4404865;28;656549;-77
2022/01/03 06:52:00;;;;;;;8.18;3.65;;;7.60;99.90;;;;;;4415230;28;658495;-77
2022/01/03 06:55:21;;;;;;;7.80;4.30;;;7.60;99.90;;;;;;4396780;28;657545;-78
2022/01/03 06:58:46;;;;;;;10.37;3.73;;;7.60;99.90;;;;;;4391852;28;656869;-78
2022/01/03 07:01:34;;;;;;;7.23;3.80;;;7.60;99.90;;;;;;4392747;28;657685;-76
2022/01/03 07:04:23;;;;;;;16.13;3.30;;;7.60;99.90;;;;;;4395942;28;656277;-77
2022/01/03 07:07:11;;;;;;;6.23;3.40;;;7.60;99.90;;;;;;4391395;28;657346;-77
2022/01/03 07:10:47;;;;;;;7.53;3.37;;;7.60;99.90;;;;;;4413179;28;656723;-76
2022/01/03 07:13:43;;;;;;;9.63;3.83;;;7.60;99.90;;;;;;4384233;28;656554;-77
2022/01/03 07:19:38;;;;;;;7.70;4.43;;;7.60;99.90;;;;;;4367496;28;656742;-77
2022/01/03 07:22:26;;;;;;;14.27;4.73;;;7.60;99.90;;;;;;4421398;28;656626;-76
2022/01/03 07:25:13;;;;;;;5.87;3.53;;;7.60;99.90;;;;;;4404348;28;657243;-76
2022/01/03 07:28:01;;;;;;;8.97;3.80;;;7.60;99.90;;;;;;4394304;28;656583;-76
2022/01/03 07:30:49;;;;;;;7.20;3.03;;;7.60;99.90;;;;;;4420011;28;657286;-76
2022/01/03 07:33:36;;;;;;;7.73;3.30;;;7.60;99.90;;;;;;4403078;28;656327;-76
2022/01/03 07:36:27;;;;;;;10.43;3.67;;;7.60;99.90;;;;;;4415278;28;657214;-75
2022/01/03 07:39:14;;;;;;;6.33;2.80;;;7.60;99.90;;;;;;4403885;28;658058;-75
2022/01/03 07:42:04;;;;;;;6.33;3.00;;;7.60;99.90;;;;;;4407463;28;656598;-76
2022/01/03 07:44:52;;;;;;;9.20;4.00;;;7.60;99.90;;;;;;4380910;28;656770;-76
2022/01/03 07:47:39;;;;;;;12.73;4.50;;;7.70;99.90;;;;;;4423289;28;656383;-76
2022/01/03 07:50:27;;;;;;;8.90;3.90;;;7.80;99.90;;;;;;4400880;28;657916;-77
2022/01/03 07:53:16;;;;;;;10.63;4.73;;;7.80;99.90;;;;;;4420194;28;656510;-76
2022/01/03 07:56:04;;;;;;;10.43;4.03;;;7.80;99.90;;;;;;4404039;28;657684;-76
2022/01/03 07:58:52;;;;;;;8.00;4.03;;;7.80;99.90;;;;;;4392554;28;657833;-76
2022/01/03 08:01:40;;;;;;;6.83;3.53;;;7.90;99.90;;;;;;4419012;28;656276;-75
2022/01/03 08:04:28;;;;;;;8.37;3.97;;;7.90;99.90;;;;;;4398301;28;658040;-77
2022/01/03 08:07:16;;;;;;;9.35;3.90;;;7.90;99.90;;;;;;4391319;28;656749;-76
2022/01/03 08:10:06;;;;;;;9.33;4.07;;;8.00;99.90;;;;;;4412696;28;657422;-76
2022/01/03 08:12:53;;;;;;;7.97;3.60;;;8.00;99.90;;;;;;4384891;28;656948;-76
2022/01/03 08:15:41;;;;;;;11.93;4.20;;;8.00;99.90;;;;;;4391743;28;656623;-76
2022/01/03 08:18:31;;;;;;;8.13;3.30;;;8.10;99.90;;;;;;4410625;28;657633;-76
2022/01/03 08:21:18;;;;;;;7.73;2.90;;;8.20;99.90;;;;;;4390517;28;657468;-76
2022/01/03 08:24:06;;;;;;;9.07;3.80;;;8.20;99.90;;;;;;4390739;28;657367;-76
2022/01/03 08:26:55;;;;;;;7.57;3.20;;;8.20;99.90;;;;;;4413222;28;657061;-76
2022/01/03 08:29:43;;;;;;;9.03;3.37;;;8.20;99.90;;;;;;4401248;28;657369;-76
2022/01/03 08:32:31;;;;;;;8.73;4.17;;;8.10;99.90;;;;;;4391537;28;656933;-76
2022/01/03 08:35:18;;;;;;;6.07;3.23;;;8.10;99.90;;;;;;4412097;28;658326;-76
2022/01/03 08:38:06;;;;;;;9.43;3.63;;;8.20;99.90;;;;;;4405732;28;656995;-76
2022/01/03 08:40:53;;;;;;;9.87;2.83;;;8.20;99.90;;;;;;4427417;28;657117;-76
2022/01/03 08:43:42;;;;;;;4.47;2.40;;;8.30;99.90;;;;;;4401198;28;656863;-75
2022/01/03 08:46:30;;;;;;;8.83;3.60;;;8.20;99.90;;;;;;4421826;28;656185;-76
2022/01/03 08:49:18;;;;;;;10.10;3.23;;;8.30;99.90;;;;;;4397960;28;657916;-76
2022/01/03 08:52:06;;;;;;;8.77;2.60;;;8.30;99.90;;;;;;4404789;28;657743;-76
2022/01/03 08:54:54;;;;;;;7.83;3.10;;;8.30;99.90;;;;;;4431497;28;657309;-76
2022/01/03 08:57:42;;;;;;;5.80;2.67;;;8.30;99.90;;;;;;4409044;28;656541;-77
2022/01/03 09:00:31;;;;;;;9.07;2.80;;;8.40;99.90;;;;;;4419596;28;656310;-76
2022/01/03 09:03:18;;;;;;;8.83;3.00;;;8.60;99.90;;;;;;4404186;28;656927;-76
2022/01/03 09:06:06;;;;;;;8.80;3.30;;;8.70;99.90;;;;;;4405177;28;657964;-76
2022/01/03 09:08:54;;;;;;;11.77;3.50;;;8.70;99.90;;;;;;4425638;28;657470;-76
2022/01/03 09:11:41;;;;;;;8.37;3.17;;;8.70;99.90;;;;;;4407760;28;657628;-75
2022/01/03 09:14:29;;;;;;;8.73;3.30;;;8.70;99.90;;;;;;4422795;28;657205;-76
2022/01/03 09:17:18;;;;;;;12.27;3.70;;;8.70;99.90;;;;;;4397257;28;657005;-76
2022/01/03 09:20:07;;;;;;;8.53;3.30;;;8.70;99.90;;;;;;4406194;28;657420;-73
2022/01/03 09:23:04;;;;;;;7.40;3.30;;;8.70;99.90;;;;;;4425524;28;656907;-75
2022/01/03 09:28:57;;;;;;;6.77;3.60;;;8.80;99.90;;;;;;4409616;28;656348;-76
2022/01/03 09:31:44;;;;;;;6.93;3.10;;;8.70;99.90;;;;;;4422107;28;656660;-75
2022/01/03 09:34:33;;;;;;;8.10;2.53;;;8.80;99.90;;;;;;4401919;28;656619;-77
2022/01/03 09:37:22;;;;;;;5.80;2.30;;;9.10;99.90;;;;;;4398596;28;657127;-75
2022/01/03 09:40:11;;;;;;;5.80;2.00;;;9.10;99.90;;;;;;4415659;28;656238;-76
2022/01/03 09:42:59;;;;;;;5.60;2.40;;;9.10;99.90;;;;;;4400840;28;657353;-76
2022/01/03 09:45:47;;;;;;;7.83;2.70;;;9.10;99.90;;;;;;4409110;28;656604;-76
2022/01/03 09:48:36;;;;;;;5.20;2.20;;;9.10;99.90;;;;;;4429261;28;656194;-76
2022/01/03 09:51:27;;;;;;;7.47;2.10;;;9.20;99.90;;;;;;4428214;28;657390;-75
2022/01/03 09:54:15;;;;;;;7.00;2.30;;;9.70;99.90;;;;;;4405183;28;656641;-76
2022/01/03 09:57:04;;;;;;;5.40;2.20;;;10.20;99.90;;;;;;4401104;28;657333;-76
2022/01/03 09:59:52;;;;;;;5.60;2.00;;;10.70;99.90;;;;;;4408728;28;657496;-74
2022/01/03 10:02:41;;;;;;;5.97;2.30;;;11.00;99.90;;;;;;4421933;28;657928;-76
2022/01/03 10:05:29;;;;;;;7.87;2.33;;;10.70;99.90;;;;;;4422265;28;658666;-76
2022/01/03 10:08:18;;;;;;;5.23;2.07;;;10.40;99.90;;;;;;4395724;28;657439;-75
2022/01/03 10:11:06;;;;;;;4.63;2.17;;;10.10;99.90;;;;;;4403788;28;658082;-76
2022/01/03 10:13:53;;;;;;;6.10;2.40;;;10.00;99.90;;;;;;4421003;28;658954;-76
2022/01/03 10:16:41;;;;;;;8.27;2.47;;;9.90;99.90;;;;;;4399301;28;657233;-76
2022/01/03 10:19:28;;;;;;;6.50;2.70;;;9.70;99.90;;;;;;4419672;28;657098;-75
2022/01/03 10:22:21;;;;;;;7.10;2.67;;;9.60;99.90;;;;;;4399597;28;656443;-77
2022/01/03 10:25:21;;;;;;;6.23;2.57;;;9.50;99.90;;;;;;4399074;28;656765;-75
2022/01/03 10:28:09;;;;;;;5.53;2.33;;;9.30;99.90;;;;;;4394336;28;656392;-75
2022/01/03 10:30:56;;;;;;;6.73;2.70;;;9.10;99.90;;;;;;4396483;28;656905;-76
2022/01/03 10:33:44;;;;;;;7.63;3.10;;;9.10;99.90;;;;;;4424226;28;657211;-77
2022/01/03 10:36:33;;;;;;;5.77;2.47;;;9.10;99.90;;;;;;4389135;28;656459;-74
2022/01/03 10:39:21;;;;;;;6.00;2.73;;;9.30;99.90;;;;;;4412093;28;656548;-75
2022/01/03 10:42:17;;;;;;;6.47;2.60;;;9.50;99.90;;;;;;4418753;28;657436;-75
2022/01/03 10:45:05;;;;;;;7.13;2.72;;;9.70;99.90;;;;;;4395000;28;656800;-75
2022/01/03 10:47:53;;;;;;;8.13;3.00;;;9.80;99.90;;;;;;4394929;28;657187;-75
2022/01/03 10:50:45;;;;;;;9.57;3.33;;;9.90;99.90;;;;;;4401290;28;656765;-76
2022/01/03 10:53:37;;;;;;;6.13;2.53;;;10.00;99.90;;;;;;4396975;28;658347;-76
2022/01/03 10:56:29;;;;;;;9.60;3.00;;;10.10;99.90;;;;;;4395163;28;657760;-76
2022/01/03 10:59:24;;;;;;;5.63;2.70;;;9.70;99.90;;;;;;4391754;28;658517;-76
2022/01/03 11:02:13;;;;;;;21.63;4.73;;;9.50;99.90;;;;;;4374096;28;657119;-76
2022/01/03 11:05:09;;;;;;;6.57;1.80;;;9.30;99.90;;;;;;4408275;28;658269;-74
2022/01/03 11:11:11;;;;;;;7.13;2.80;;;9.20;99.90;;;;;;4375545;28;657060;-76
2022/01/03 11:13:58;;;;;;;5.17;2.57;;;9.10;99.90;;;;;;4416937;28;656796;-75
2022/01/03 11:16:47;;;;;;;7.57;2.73;;;9.20;99.90;;;;;;4400246;28;656918;-75
2022/01/03 11:19:38;;;;;;;5.73;2.23;;;9.50;99.90;;;;;;4426724;28;656533;-76
2022/01/03 11:22:39;;;;;;;8.07;2.97;;;9.60;99.90;;;;;;4399132;28;656944;-76
2022/01/03 11:25:30;;;;;;;7.20;2.80;;;9.70;99.90;;;;;;4377206;28;658031;-76
2022/01/03 11:28:17;;;;;;;3.53;1.50;;;9.70;99.90;;;;;;4399086;28;656242;-76
2022/01/03 11:31:05;;;;;;;9.03;3.07;;;9.60;99.90;;;;;;4412315;28;656133;-76
2022/01/03 11:33:54;;;;;;;10.27;3.47;;;9.50;99.90;;;;;;4398851;28;657658;-77
2022/01/03 11:36:42;;;;;;;6.70;3.23;;;9.40;99.90;;;;;;4398769;28;657912;-76
2022/01/03 11:39:32;;;;;;;5.30;1.87;;;9.50;99.90;;;;;;4414242;28;655975;-76
2022/01/03 11:42:20;;;;;;;8.87;2.77;;;9.80;99.90;;;;;;4392584;28;656605;-76
2022/01/03 11:45:08;;;;;;;6.37;1.90;;;10.00;99.90;;;;;;4387684;28;657354;-76
2022/01/03 11:47:56;;;;;;;4.60;1.40;;;10.40;99.90;;;;;;4393532;28;658227;-76
2022/01/03 11:50:45;;;;;;;4.40;1.30;;;10.90;98.50;;;;;;4416871;28;658321;-75
2022/01/03 11:53:34;;;;;;;2.77;1.03;;;11.00;97.00;;;;;;4392160;28;657676;-75
2022/01/03 11:56:23;;;;;;;5.77;1.53;;;11.10;94.60;;;;;;4396207;28;658739;-76
2022/01/03 11:59:23;;;;;;;2.47;0.80;;;11.30;94.90;;;;;;4394129;28;657548;-76
2022/01/03 12:05:18;;;;;;;3.37;1.20;;;11.40;89.40;;;;;;4372120;28;657883;-76
2022/01/03 12:08:07;;;;;;;5.43;1.30;;;10.70;92.50;;;;;;4392896;28;657480;-75
2022/01/03 12:10:55;;;;;;;8.93;1.60;;;10.50;94.60;;;;;;4421628;28;657465;-77
2022/01/03 12:13:53;;;;;;;5.50;1.30;;;10.30;96.10;;;;;;4394873;28;659445;-76
2022/01/03 12:16:46;;;;;;;3.83;1.30;;;10.20;96.60;;;;;;4389140;28;658460;-75
2022/01/03 12:19:35;;;;;;;1.23;0.90;;;10.10;98.00;;;;;;4392821;28;658117;-76
2022/01/03 12:22:22;;;;;;;7.57;1.30;;;10.00;98.30;;;;;;4393096;28;657862;-78
2022/01/03 12:25:14;;;;;;;5.83;1.50;;;9.90;99.90;;;;;;4416536;28;657384;-79
2022/01/03 12:28:03;;;;;;;4.93;1.53;;;9.80;99.90;;;;;;4373495;28;657748;-79
2022/01/03 12:30:57;;;;;;;2.70;1.10;;;9.70;99.90;;;;;;4393476;28;656843;-77
2022/01/03 12:33:44;;;;;;;4.40;1.77;;;9.60;99.90;;;;;;4393118;28;658298;-78
2022/01/03 12:36:32;;;;;;;4.90;1.40;;;9.50;99.90;;;;;;4397322;28;657413;-78
2022/01/03 12:39:19;;;;;;;3.57;1.47;;;9.40;99.90;;;;;;4420070;28;656423;-78
2022/01/03 12:42:08;;;;;;;5.60;1.83;;;9.40;99.90;;;;;;4398519;28;656642;-78
2022/01/03 12:44:57;;;;;;;6.73;1.87;;;9.40;99.90;;;;;;4390450;28;656787;-78
2022/01/03 12:47:45;;;;;;;4.40;1.20;;;9.30;99.90;;;;;;4418973;28;657201;-74
2022/01/03 12:50:33;;;;;;;4.80;1.73;;;9.30;99.90;;;;;;4398406;28;656621;-78
2022/01/03 12:53:40;;;;;;;5.83;2.23;;;9.30;99.90;;;;;;4395688;28;656891;-76
2022/01/03 12:56:31;;;;;;;6.30;1.70;;;9.20;99.90;;;;;;4392289;28;656789;-79
2022/01/03 12:59:22;;;;;;;4.40;1.43;;;9.20;99.90;;;;;;4393266;28;657284;-75
2022/01/03 13:02:26;;;;;;;11.33;2.23;;;9.20;99.90;;;;;;4391906;28;656306;-77
2022/01/03 13:05:13;;;;;;;4.87;1.63;;;9.20;99.90;;;;;;4388883;28;658084;-75
2022/01/03 13:08:01;;;;;;;8.17;1.93;;;9.20;99.90;;;;;;4392219;28;657066;-74
2022/01/03 13:11:01;;;;;;;6.17;2.00;;;9.10;99.90;;;;;;4412003;28;656895;-77
2022/01/03 13:13:50;;;;;;;3.93;1.50;;;9.10;99.90;;;;;;4391977;28;658114;-77
2022/01/03 13:16:40;;;;;;;4.07;1.70;;;9.10;99.90;;;;;;4391768;28;657789;-76
2022/01/03 13:19:28;;;;;;;4.87;2.10;;;9.10;99.90;;;;;;4397107;28;657192;-74
2022/01/03 13:22:16;;;;;;;9.33;2.53;;;9.10;99.90;;;;;;4401217;28;657071;-75
2022/01/03 13:25:03;;;;;;;5.70;2.03;;;9.00;99.90;;;;;;4421021;28;658110;-75
2022/01/03 13:27:51;;;;;;;5.50;1.67;;;9.00;99.90;;;;;;4404608;28;657011;-78
2022/01/03 13:30:39;;;;;;;8.43;2.00;;;9.00;99.90;;;;;;4419689;28;657818;-76
2022/01/03 13:33:28;;;;;;;5.33;1.90;;;9.00;99.90;;;;;;4399917;28;656672;-76
2022/01/03 13:36:18;;;;;;;5.33;1.57;;;8.90;99.90;;;;;;4405626;28;657005;-76
2022/01/03 13:39:07;;;;;;;5.88;2.03;;;9.00;99.90;;;;;;4401292;28;657030;-77
2022/01/03 13:41:56;;;;;;;6.57;2.40;;;8.90;99.90;;;;;;4430090;28;656880;-77
2022/01/03 13:51:08;;;;;;;3.83;1.57;;;8.80;99.90;;;;;;4301168;28;656279;-77
2022/01/03 13:53:55;;;;;;;4.23;1.80;;;8.80;99.90;;;;;;4314957;28;657358;-77
2022/01/03 13:56:43;;;;;;;5.77;2.30;;;8.70;99.90;;;;;;4347501;28;657797;-77
2022/01/03 13:59:33;;;;;;;3.63;2.10;;;8.70;99.90;;;;;;4319743;28;656983;-74
2022/01/03 14:02:23;;;;;;;5.40;1.60;;;9.00;99.90;;;;;;4328805;28;656612;-74
2022/01/03 14:05:11;;;;;;;6.93;2.40;;;9.80;99.90;;;;;;4339422;28;656895;-76
2022/01/03 14:08:02;;;;;;;8.73;2.03;;;9.40;99.90;;;;;;4358598;28;657012;-76
2022/01/03 14:10:50;;;;;;;7.53;2.27;;;9.20;99.90;;;;;;4331238;28;656856;-77
2022/01/03 14:13:38;;;;;;;8.00;1.83;;;8.80;99.90;;;;;;4327233;28;656509;-76
2022/01/03 14:16:27;;;;;;;8.45;2.28;;;8.60;99.90;;;;;;4329113;28;656554;-76
2022/01/03 14:19:15;;;;;;;8.67;2.60;;;8.50;99.90;;;;;;4349404;28;656179;-76
2022/01/03 14:22:13;;;;;;;8.30;2.20;;;8.40;99.90;;;;;;4326648;28;657518;-77
2022/01/03 14:25:04;;;;;;;7.10;2.27;;;8.30;99.90;;;;;;4315129;28;656955;-76
2022/01/03 14:28:00;;;;;;;10.30;2.20;;;8.40;99.90;;;;;;4343716;28;656411;-78
2022/01/03 14:30:47;;;;;;;6.00;2.13;;;8.40;99.90;;;;;;4397056;28;657712;-78
2022/01/03 14:33:37;;;;;;;7.23;2.30;;;8.40;99.90;;;;;;4417889;28;656862;-79
2022/01/03 14:36:25;;;;;;;7.77;2.17;;;8.40;99.90;;;;;;4396395;28;656876;-79
2022/01/03 14:39:12;;;;;;;6.43;1.87;;;8.40;99.90;;;;;;4394802;28;657907;-78
2022/01/03 14:42:03;;;;;;;6.67;2.10;;;8.50;99.90;;;;;;4418834;28;656777;-79
2022/01/03 14:44:51;;;;;;;3.93;1.73;;;8.40;99.90;;;;;;4380857;28;657483;-76
2022/01/03 14:47:38;;;;;;;10.40;2.43;;;8.40;99.90;;;;;;4426922;28;657977;-79
2022/01/03 14:50:26;;;;;;;8.00;2.83;;;8.40;99.90;;;;;;4396317;28;657797;-78
2022/01/03 14:53:14;;;;;;;6.97;2.10;;;8.40;99.90;;;;;;4421026;28;656949;-79
2022/01/03 14:56:02;;;;;;;8.77;2.20;;;8.30;99.90;;;;;;4406833;28;656486;-79
2022/01/03 14:58:51;;;;;;;9.20;2.97;;;8.40;99.90;;;;;;4422000;28;656514;-79